createdAt,value
2024-02-08T00:02:26.090Z,3.62
2024-02-08T00:05:28.342Z,3.59
2024-02-08T00:08:30.370Z,3.56
2024-02-08T00:11:33.069Z,3.43
2024-02-08T00:14:35.079Z,3.50
2024-02-08T00:17:37.158Z,3.40
2024-02-08T00:20:39.092Z,3.47
2024-02-08T00:23:41.140Z,3.38
2024-02-08T00:26:43.116Z,3.33
2024-02-08T00:29:45.311Z,3.39
2024-02-08T00:32:47.885Z,3.37
2024-02-08T00:35:49.847Z,3.31
2024-02-08T00:38:52.891Z,3.35
2024-02-08T00:41:58.590Z,3.38
2024-02-08T00:45:00.645Z,3.37
2024-02-08T00:48:03.626Z,3.36
2024-02-08T00:51:08.314Z,3.31
2024-02-08T00:54:10.513Z,3.30
2024-02-08T00:57:12.384Z,3.16
2024-02-08T01:00:14.802Z,3.27
2024-02-08T01:03:16.965Z,3.24
2024-02-08T01:06:19.009Z,3.12
2024-02-08T01:09:21.037Z,3.18
2024-02-08T01:12:24.708Z,3.17
2024-02-08T01:15:27.968Z,3.17
2024-02-08T01:18:30.149Z,3.15
2024-02-08T01:21:32.804Z,3.01
2024-02-08T01:24:35.999Z,3.07
2024-02-08T01:27:37.996Z,3.07
2024-02-08T01:30:40.172Z,3.04
2024-02-08T01:33:43.460Z,3.03
2024-02-08T01:36:45.600Z,2.97
2024-02-08T01:39:47.530Z,2.96
2024-02-08T01:42:49.401Z,2.95
2024-02-08T01:45:51.391Z,2.94
2024-02-08T01:48:54.731Z,2.98
2024-02-08T01:52:04.305Z,2.93
2024-02-08T01:55:07.687Z,2.90
2024-02-08T01:58:09.881Z,2.92
2024-02-08T02:01:12.603Z,2.85
2024-02-08T02:04:17.124Z,2.84
2024-02-08T02:07:20.946Z,2.89
2024-02-08T02:10:31.231Z,2.85
2024-02-08T02:13:37.371Z,2.83
2024-02-08T02:16:39.401Z,2.78
2024-02-08T02:19:42.330Z,2.75
2024-02-08T02:22:45.456Z,2.66
2024-02-08T02:25:53.008Z,2.69
2024-02-08T02:28:56.104Z,2.67
2024-02-08T02:32:01.048Z,2.63
2024-02-08T02:35:03.452Z,2.76
2024-02-08T02:38:06.021Z,2.67
2024-02-08T02:41:09.059Z,2.66
2024-02-08T02:44:11.027Z,2.60
2024-02-08T02:47:13.221Z,2.60
2024-02-08T02:50:18.410Z,2.57
2024-02-08T02:53:20.562Z,2.58
2024-02-08T02:56:22.556Z,2.54
2024-02-08T02:59:27.861Z,2.53
2024-02-08T03:02:30.410Z,2.45
2024-02-08T03:05:33.931Z,2.50
2024-02-08T03:08:39.251Z,2.40
2024-02-08T03:11:42.774Z,2.52
2024-02-08T03:14:58.903Z,2.51
2024-02-08T03:18:01.814Z,2.41
2024-02-08T03:21:03.812Z,2.46
2024-02-08T03:24:09.471Z,2.33
2024-02-08T03:27:15.834Z,2.43
2024-02-08T03:30:21.259Z,2.38
2024-02-08T03:33:23.669Z,2.41
2024-02-08T03:36:25.805Z,2.45
2024-02-08T03:39:28.378Z,2.43
2024-02-08T03:42:30.678Z,2.32
2024-02-08T03:45:32.619Z,2.41
2024-02-08T03:48:34.854Z,2.34
2024-02-08T03:51:38.688Z,2.24
2024-02-08T03:54:42.227Z,2.34
2024-02-08T03:57:50.351Z,2.38
2024-02-08T04:00:55.285Z,2.39
2024-02-08T04:04:13.197Z,2.36
2024-02-08T04:07:35.603Z,2.33
2024-02-08T04:10:37.771Z,2.29
2024-02-08T04:13:58.392Z,2.33
2024-02-08T04:17:18.718Z,2.29
2024-02-08T04:20:39.277Z,2.27
2024-02-08T04:23:59.801Z,2.27
2024-02-08T04:27:20.381Z,2.30
2024-02-08T04:30:40.838Z,2.23
2024-02-08T04:34:01.420Z,2.17
2024-02-08T04:37:22.187Z,2.24
2024-02-08T04:40:42.947Z,2.09
2024-02-08T04:44:03.391Z,2.07
2024-02-08T04:47:23.810Z,2.18
2024-02-08T04:50:44.261Z,2.15
2024-02-08T04:53:46.437Z,2.20
2024-02-08T04:56:48.525Z,2.13
2024-02-08T04:59:53.274Z,2.14
2024-02-08T05:03:02.121Z,2.20
2024-02-08T05:06:16.329Z,2.06
2024-02-08T05:09:21.294Z,2.15
2024-02-08T05:12:23.403Z,2.15
2024-02-08T05:15:26.750Z,2.17
2024-02-08T05:18:30.127Z,2.21
2024-02-08T05:21:35.022Z,2.15
2024-02-08T05:24:36.842Z,2.22
2024-02-08T05:27:39.042Z,2.17
2024-02-08T05:30:40.924Z,2.12
2024-02-08T05:33:43.821Z,2.23
2024-02-08T05:36:46.818Z,2.23
2024-02-08T05:39:49.288Z,2.15
2024-02-08T05:42:52.829Z,2.24
2024-02-08T05:45:55.862Z,2.29
2024-02-08T05:49:13.217Z,2.20
2024-02-08T05:52:16.483Z,2.23
2024-02-08T05:55:20.814Z,2.26
2024-02-08T05:58:22.917Z,2.29
2024-02-08T06:01:25.402Z,2.29
2024-02-08T06:04:35.862Z,2.24
2024-02-08T06:07:38.631Z,2.27
2024-02-08T06:10:43.723Z,2.25
2024-02-08T06:13:56.296Z,2.20
2024-02-08T06:16:58.746Z,2.23
2024-02-08T06:20:01.880Z,2.19
2024-02-08T06:23:24.248Z,2.27
2024-02-08T06:26:29.413Z,2.35
2024-02-08T06:29:48.093Z,2.37
2024-02-08T06:32:58.941Z,2.26
2024-02-08T06:36:01.012Z,2.41
2024-02-08T06:39:25.060Z,2.43
2024-02-08T06:43:08.390Z,2.43
2024-02-08T06:46:11.490Z,2.44
2024-02-08T06:49:32.171Z,2.45
2024-02-08T06:52:53.635Z,2.50
2024-02-08T06:56:14.246Z,2.51
2024-02-08T06:59:35.225Z,2.50
2024-02-08T07:02:58.026Z,2.43
2024-02-08T07:06:18.735Z,2.36
2024-02-08T07:09:39.335Z,2.32
2024-02-08T07:13:00.076Z,2.32
2024-02-08T07:16:20.423Z,2.36
2024-02-08T07:19:41.788Z,2.32
2024-02-08T07:23:02.617Z,2.29
2024-02-08T07:26:23.303Z,2.40
2024-02-08T07:29:43.975Z,2.45
2024-02-08T07:33:04.503Z,2.55
2024-02-08T07:36:25.480Z,2.58
2024-02-08T07:39:36.480Z,2.61
2024-02-08T07:42:43.278Z,2.53
2024-02-08T07:45:47.562Z,2.47
2024-02-08T07:48:49.620Z,2.60
2024-02-08T07:51:52.001Z,2.65
2024-02-08T07:55:15.167Z,2.53
2024-02-08T07:58:20.189Z,2.69
2024-02-08T08:01:22.273Z,2.53
2024-02-08T08:04:44.151Z,2.58
2024-02-08T08:07:47.091Z,2.57
2024-02-08T08:10:49.170Z,2.64
2024-02-08T08:13:57.147Z,2.56
2024-02-08T08:17:14.641Z,2.67
2024-02-08T08:20:35.202Z,2.59
2024-02-08T08:23:42.500Z,2.60
2024-02-08T08:26:45.634Z,2.66
2024-02-08T08:29:47.598Z,2.58
2024-02-08T08:32:52.255Z,2.56
2024-02-08T08:35:56.209Z,2.70
2024-02-08T08:39:37.429Z,2.64
2024-02-08T08:42:41.765Z,2.64
2024-02-08T08:45:44.466Z,2.72
2024-02-08T08:48:52.361Z,2.73
2024-02-08T08:52:00.505Z,2.73
2024-02-08T08:55:19.156Z,2.75
2024-02-08T08:58:24.120Z,2.78
2024-02-08T09:01:26.436Z,2.70
2024-02-08T09:04:34.333Z,2.70
2024-02-08T09:07:39.290Z,2.74
2024-02-08T09:10:44.258Z,2.64
2024-02-08T09:13:52.588Z,2.62
2024-02-08T09:16:59.133Z,2.60
2024-02-08T09:20:01.474Z,2.58
2024-02-08T09:23:14.444Z,2.45
2024-02-08T09:26:16.687Z,2.24
2024-02-08T09:29:30.152Z,2.41
2024-02-08T09:32:47.496Z,2.28
2024-02-08T09:35:49.489Z,2.31
2024-02-08T09:38:52.539Z,2.37
2024-02-08T09:41:55.134Z,2.43
2024-02-08T09:45:15.350Z,2.44
2024-02-08T09:48:27.182Z,2.54
2024-02-08T09:51:36.565Z,2.54
2024-02-08T09:54:38.680Z,2.67
2024-02-08T09:57:47.714Z,2.66
2024-02-08T10:00:59.386Z,2.56
2024-02-08T10:04:16.444Z,2.38
2024-02-08T10:07:20.583Z,2.40
2024-02-08T10:10:28.242Z,2.52
2024-02-08T10:13:53.337Z,2.55
2024-02-08T10:17:02.054Z,2.66
2024-02-08T10:20:23.679Z,2.66
2024-02-08T10:23:35.208Z,2.56
2024-02-08T10:26:40.812Z,2.55
2024-02-08T10:29:45.363Z,2.59
2024-02-08T10:32:53.408Z,2.70
2024-02-08T10:36:08.758Z,2.65
2024-02-08T10:39:25.873Z,2.65
2024-02-08T10:42:39.660Z,2.62
2024-02-08T10:45:45.587Z,2.58
2024-02-08T10:48:51.114Z,2.61
2024-02-08T10:52:02.297Z,2.54
2024-02-08T10:55:19.964Z,2.66
2024-02-08T10:58:22.926Z,2.55
2024-02-08T11:01:34.904Z,2.46
2024-02-08T11:04:42.816Z,2.45
2024-02-08T11:07:47.573Z,2.69
2024-02-08T11:10:55.877Z,2.66
2024-02-08T11:14:01.243Z,2.74
2024-02-08T11:17:06.896Z,2.66
2024-02-08T11:20:18.584Z,2.69
2024-02-08T11:23:25.143Z,2.69
2024-02-08T11:26:27.926Z,2.73
2024-02-08T11:29:31.109Z,2.73
2024-02-08T11:32:35.856Z,2.59
2024-02-08T11:35:46.777Z,2.58
2024-02-08T11:38:59.456Z,2.64
2024-02-08T11:42:02.166Z,2.71
2024-02-08T11:45:10.190Z,2.73
2024-02-08T11:48:27.733Z,2.65
2024-02-08T11:51:35.146Z,2.76
2024-02-08T11:54:41.134Z,2.71
2024-02-08T11:57:43.362Z,2.69
2024-02-08T12:00:50.661Z,2.83
2024-02-08T12:03:54.653Z,2.84
2024-02-08T12:07:05.875Z,2.74
2024-02-08T12:10:11.006Z,2.71
2024-02-08T12:13:15.463Z,2.75
2024-02-08T12:16:19.224Z,2.72
2024-02-08T12:19:21.339Z,2.79
2024-02-08T12:22:23.432Z,2.75
2024-02-08T12:25:29.096Z,2.69
2024-02-08T12:28:35.801Z,2.84
2024-02-08T12:31:37.952Z,2.74
2024-02-08T12:34:40.216Z,2.66
2024-02-08T12:37:44.634Z,2.66
2024-02-08T12:40:47.712Z,2.67
2024-02-08T12:43:57.105Z,2.47
2024-02-08T12:46:59.213Z,2.41
2024-02-08T12:50:11.448Z,2.41
2024-02-08T12:53:22.301Z,2.40
2024-02-08T12:56:24.273Z,2.21
2024-02-08T12:59:30.156Z,2.29
2024-02-08T13:02:35.000Z,2.25
2024-02-08T13:05:39.002Z,2.19
2024-02-08T13:08:46.319Z,1.98
2024-02-08T13:11:48.774Z,2.08
2024-02-08T13:14:50.822Z,2.05
2024-02-08T13:17:53.323Z,2.04
2024-02-08T13:20:55.501Z,1.92
2024-02-08T13:23:58.259Z,1.85
2024-02-08T13:27:04.924Z,1.85
2024-02-08T13:30:17.517Z,1.68
2024-02-08T13:33:20.837Z,1.80
2024-02-08T13:36:26.481Z,1.83
2024-02-08T13:39:28.792Z,1.86
2024-02-08T13:42:43.182Z,1.83
2024-02-08T13:45:55.928Z,1.83
2024-02-08T13:49:01.240Z,1.78
2024-02-08T13:52:03.585Z,1.71
2024-02-08T13:55:08.786Z,1.63
2024-02-08T13:58:10.781Z,1.49
2024-02-08T14:01:13.040Z,1.50
2024-02-08T14:04:22.325Z,1.45
2024-02-08T14:07:27.345Z,1.31
2024-02-08T14:10:33.048Z,1.26
2024-02-08T14:13:37.303Z,1.29
2024-02-08T14:16:41.575Z,1.24
2024-02-08T14:19:45.189Z,1.17
2024-02-08T14:22:47.443Z,1.22
2024-02-08T14:26:08.306Z,1.08
2024-02-08T14:29:10.508Z,1.08
2024-02-08T14:32:21.088Z,1.05
2024-02-08T14:35:33.376Z,0.99
2024-02-08T14:38:42.324Z,0.97
2024-02-08T14:41:45.334Z,0.87
2024-02-08T14:44:53.062Z,0.78
2024-02-08T14:47:55.019Z,0.84
2024-02-08T14:51:17.588Z,0.77
2024-02-08T14:54:20.486Z,0.73
2024-02-08T14:57:25.829Z,0.63
2024-02-08T15:00:34.060Z,0.69
2024-02-08T15:03:40.340Z,0.63
2024-02-08T15:06:43.872Z,0.68
2024-02-08T15:09:45.763Z,0.76
2024-02-08T15:13:14.147Z,0.70
2024-02-08T15:16:32.097Z,0.70
2024-02-08T15:19:46.708Z,0.73
2024-02-08T15:22:50.665Z,0.77
2024-02-08T15:25:54.982Z,0.77
2024-02-08T15:28:58.456Z,0.66
2024-02-08T15:32:11.830Z,0.75
2024-02-08T15:35:37.344Z,0.59
2024-02-08T15:38:56.651Z,0.59
2024-02-08T15:42:02.943Z,0.58
2024-02-08T15:45:12.192Z,0.66
2024-02-08T15:48:15.927Z,0.63
2024-02-08T15:51:30.091Z,0.53
2024-02-08T15:54:39.674Z,0.60
2024-02-08T15:57:46.784Z,0.52
2024-02-08T16:01:08.370Z,0.55
2024-02-08T16:04:30.708Z,0.55
2024-02-08T16:07:34.264Z,0.29
2024-02-08T16:10:36.607Z,0.36
2024-02-08T16:13:48.127Z,0.24
2024-02-08T16:17:08.393Z,0.35
2024-02-08T16:20:17.659Z,0.33
2024-02-08T16:23:21.663Z,0.28
2024-02-08T16:26:32.059Z,0.19
2024-02-08T16:29:36.130Z,0.24
2024-02-08T16:32:53.418Z,0.16
2024-02-08T16:36:10.308Z,0.26
2024-02-08T16:39:15.022Z,0.19
2024-02-08T16:42:24.765Z,0.25
2024-02-08T16:45:35.771Z,0.22
2024-02-08T16:48:46.207Z,0.12
2024-02-08T16:51:52.310Z,0.11
2024-02-08T16:55:01.654Z,0.18
2024-02-08T16:58:18.789Z,0.20
2024-02-08T17:01:29.808Z,0.16
2024-02-08T17:04:49.244Z,0.20
2024-02-08T17:07:52.898Z,0.07
2024-02-08T17:11:02.651Z,0.18
2024-02-08T17:14:05.055Z,0.16
2024-02-08T17:17:23.900Z,0.15
2024-02-08T17:20:46.336Z,0.15
2024-02-08T17:24:02.938Z,0.14
2024-02-08T17:27:29.110Z,0.13
2024-02-08T17:30:49.991Z,0.15
2024-02-08T17:33:51.927Z,0.11
2024-02-08T17:36:56.732Z,-0.04
2024-02-08T17:39:58.917Z,0.02
2024-02-08T17:43:10.421Z,0.03
2024-02-08T17:46:13.042Z,0.01
2024-02-08T17:49:21.380Z,0.08
2024-02-08T17:52:26.900Z,0.10
2024-02-08T17:55:37.312Z,-0.10
2024-02-08T17:58:40.778Z,0.02
2024-02-08T18:01:57.287Z,0.04
2024-02-08T18:05:02.678Z,0.04
2024-02-08T18:08:07.989Z,0.03
2024-02-08T18:11:10.662Z,0.05
2024-02-08T18:14:16.828Z,-0.01
2024-02-08T18:17:25.727Z,-0.02
2024-02-08T18:20:31.633Z,-0.07
2024-02-08T18:23:34.562Z,-0.05
2024-02-08T18:26:36.831Z,-0.05
2024-02-08T18:29:38.702Z,-0.04
2024-02-08T18:32:42.082Z,-0.05
2024-02-08T18:35:46.833Z,-0.04
2024-02-08T18:38:49.289Z,-0.07
2024-02-08T18:41:52.116Z,-0.07
2024-02-08T18:44:54.788Z,-0.13
2024-02-08T18:48:02.385Z,-0.13
2024-02-08T18:51:04.627Z,-0.15
2024-02-08T18:54:12.537Z,-0.18
2024-02-08T18:57:17.501Z,-0.22
2024-02-08T19:00:24.122Z,-0.21
2024-02-08T19:03:32.211Z,-0.19
2024-02-08T19:06:40.889Z,-0.21
2024-02-08T19:09:44.728Z,-0.19
2024-02-08T19:12:53.163Z,-0.20
2024-02-08T19:16:09.612Z,-0.22
2024-02-08T19:19:13.265Z,-0.24
2024-02-08T19:22:19.302Z,-0.28
2024-02-08T19:25:23.503Z,-0.30
2024-02-08T19:28:26.896Z,-0.31
2024-02-08T19:31:31.155Z,-0.32
2024-02-08T19:34:33.656Z,-0.41
2024-02-08T19:37:35.779Z,-0.42
2024-02-08T19:40:38.470Z,-0.50
2024-02-08T19:43:40.640Z,-0.45
2024-02-08T19:46:53.881Z,-0.48
2024-02-08T19:50:06.836Z,-0.48
2024-02-08T19:53:10.847Z,-0.51
2024-02-08T19:56:12.761Z,-0.53
2024-02-08T19:59:20.822Z,-0.52
2024-02-08T20:02:29.037Z,-0.54
2024-02-08T20:05:34.015Z,-0.62
2024-02-08T20:08:39.721Z,-0.62
2024-02-08T20:11:43.030Z,-0.63
2024-02-08T20:14:45.100Z,-0.63
2024-02-08T20:17:51.200Z,-0.64
2024-02-08T20:20:53.961Z,-0.67
2024-02-08T20:23:56.074Z,-0.71
2024-02-08T20:27:00.414Z,-0.75
2024-02-08T20:30:08.447Z,-0.78
2024-02-08T20:33:15.024Z,-0.78
2024-02-08T20:36:17.765Z,-0.78
2024-02-08T20:39:19.902Z,-0.82
2024-02-08T20:42:25.191Z,-0.83
2024-02-08T20:45:28.655Z,-0.87
2024-02-08T20:48:32.121Z,-0.90
2024-02-08T20:51:37.236Z,-0.93
2024-02-08T20:54:45.791Z,-0.94
2024-02-08T20:57:52.037Z,-1.05
2024-02-08T21:00:54.447Z,-1.06
2024-02-08T21:03:57.404Z,-1.09
2024-02-08T21:07:00.076Z,-1.15
2024-02-08T21:10:02.312Z,-1.17
2024-02-08T21:13:04.419Z,-1.16
2024-02-08T21:16:06.472Z,-1.17
2024-02-08T21:19:11.023Z,-1.20
2024-02-08T21:22:15.773Z,-1.22
2024-02-08T21:25:20.085Z,-1.20
2024-02-08T21:28:26.603Z,-1.18
2024-02-08T21:31:28.823Z,-1.21
2024-02-08T21:34:35.963Z,-1.24
2024-02-08T21:37:38.688Z,-1.27
2024-02-08T21:40:43.452Z,-1.28
2024-02-08T21:43:48.931Z,-1.29
2024-02-08T21:46:51.399Z,-1.34
2024-02-08T21:49:56.576Z,-1.34
2024-02-08T21:52:58.633Z,-1.32
2024-02-08T21:56:00.670Z,-1.36
2024-02-08T21:59:02.595Z,-1.34
2024-02-08T22:02:11.033Z,-1.30
2024-02-08T22:05:13.569Z,-1.31
2024-02-08T22:08:15.959Z,-1.29
2024-02-08T22:11:17.913Z,-1.31
2024-02-08T22:14:21.032Z,-1.32
2024-02-08T22:17:23.136Z,-1.39
2024-02-08T22:20:25.758Z,-1.44
2024-02-08T22:23:27.761Z,-1.59
2024-02-08T22:26:30.450Z,-1.67
2024-02-08T22:29:33.190Z,-1.83
2024-02-08T22:32:36.867Z,-1.93
2024-02-08T22:35:38.927Z,-1.93
2024-02-08T22:38:42.045Z,-2.10
2024-02-08T22:41:48.984Z,-2.16
2024-02-08T22:44:51.230Z,-2.30
2024-02-08T22:47:54.318Z,-2.36
2024-02-08T22:50:56.073Z,-2.33
2024-02-08T22:53:58.479Z,-2.30
2024-02-08T22:57:00.502Z,-2.39
2024-02-08T23:00:22.261Z,-2.51
2024-02-08T23:03:25.629Z,-2.54
2024-02-08T23:06:32.095Z,-2.58
2024-02-08T23:09:36.095Z,-2.66
2024-02-08T23:12:40.286Z,-2.65
2024-02-08T23:15:46.951Z,-2.62
2024-02-08T23:18:52.508Z,-2.59
2024-02-08T23:21:55.360Z,-2.58
2024-02-08T23:24:59.380Z,-2.60
2024-02-08T23:28:04.289Z,-2.64
2024-02-08T23:31:10.046Z,-2.62
2024-02-08T23:34:13.337Z,-2.63
2024-02-08T23:37:17.748Z,-2.59
2024-02-08T23:40:19.899Z,-2.65
2024-02-08T23:43:22.023Z,-2.66
2024-02-08T23:46:25.560Z,-2.70
2024-02-08T23:49:27.842Z,-2.66
2024-02-08T23:52:30.022Z,-2.67
2024-02-08T23:55:32.606Z,-2.61
2024-02-08T23:58:35.168Z,-2.64
